createdAt,value
2023-03-20T00:02:25.570Z,36.08
2023-03-20T00:04:52.828Z,34.72
2023-03-20T00:07:19.885Z,38.58
2023-03-20T00:09:47.794Z,36.05
2023-03-20T00:12:22.043Z,35.15
2023-03-20T00:14:49.073Z,35.75
2023-03-20T00:17:20.983Z,37.25
2023-03-20T00:19:48.061Z,37.13
2023-03-20T00:22:15.270Z,35.08
2023-03-20T00:24:42.100Z,36.45
2023-03-20T00:27:14.453Z,37.30
2023-03-20T00:29:41.403Z,40.92
2023-03-20T00:32:15.404Z,33.88
2023-03-20T00:34:42.458Z,33.95
2023-03-20T00:37:11.686Z,34.78
2023-03-20T00:39:38.812Z,33.33
2023-03-20T00:42:13.456Z,33.20
2023-03-20T00:44:55.760Z,34.75
2023-03-20T00:47:25.039Z,34.75
2023-03-20T00:49:54.586Z,37.28
2023-03-20T00:52:23.085Z,34.67
2023-03-20T00:54:49.958Z,34.42
2023-03-20T00:57:28.149Z,36.60
2023-03-20T01:00:05.120Z,37.40
2023-03-20T01:02:32.767Z,37.13
2023-03-20T01:05:00.005Z,37.85
2023-03-20T01:07:27.774Z,37.70
2023-03-20T01:09:54.571Z,38.20
2023-03-20T01:12:21.439Z,37.20
2023-03-20T01:14:55.330Z,36.80
2023-03-20T01:17:23.733Z,36.85
2023-03-20T01:19:50.919Z,38.08
2023-03-20T01:22:18.205Z,38.00
2023-03-20T01:24:46.239Z,37.80
2023-03-20T01:27:19.403Z,38.17
2023-03-20T01:29:47.059Z,39.17
2023-03-20T01:32:19.402Z,38.00
2023-03-20T01:34:47.519Z,36.75
2023-03-20T01:37:27.947Z,37.60
2023-03-20T01:39:57.757Z,37.65
2023-03-20T01:42:24.921Z,38.10
2023-03-20T01:44:51.852Z,37.08
2023-03-20T01:47:24.213Z,37.65
2023-03-20T01:50:26.705Z,37.53
2023-03-20T01:53:07.284Z,36.97
2023-03-20T01:55:36.171Z,38.47
2023-03-20T01:58:12.969Z,37.50
2023-03-20T02:00:39.924Z,36.97
2023-03-20T02:03:09.181Z,36.63
2023-03-20T02:05:38.317Z,37.40
2023-03-20T02:08:23.918Z,37.45
2023-03-20T02:10:51.072Z,36.55
2023-03-20T02:13:19.446Z,37.95
2023-03-20T02:15:58.340Z,38.72
2023-03-20T02:18:26.153Z,38.97
2023-03-20T02:21:23.920Z,38.10
2023-03-20T02:24:18.074Z,38.40
2023-03-20T02:27:34.465Z,38.10
2023-03-20T02:30:42.865Z,38.10
2023-03-20T02:33:37.304Z,38.10
2023-03-20T02:36:38.318Z,38.67
2023-03-20T02:39:28.112Z,43.22
2023-03-20T02:42:27.659Z,42.05
2023-03-20T02:45:31.190Z,39.38
2023-03-20T02:48:16.922Z,38.50
2023-03-20T02:51:09.886Z,37.47
2023-03-20T02:53:59.082Z,39.38
2023-03-20T02:56:49.354Z,41.60
2023-03-20T02:59:46.160Z,40.22
2023-03-20T03:02:35.536Z,38.55
2023-03-20T03:05:12.587Z,39.13
2023-03-20T03:07:45.464Z,38.88
2023-03-20T03:10:21.476Z,40.15
2023-03-20T03:12:53.067Z,39.25
2023-03-20T03:15:39.677Z,40.58
2023-03-20T03:18:14.376Z,38.28
2023-03-20T03:20:45.367Z,41.15
2023-03-20T03:23:26.527Z,39.08
2023-03-20T03:25:57.644Z,40.97
2023-03-20T03:28:40.769Z,39.25
2023-03-20T03:31:15.287Z,40.00
2023-03-20T03:33:48.296Z,40.00
2023-03-20T03:37:00.812Z,40.85
2023-03-20T03:39:41.661Z,40.10
2023-03-20T03:42:47.558Z,40.65
2023-03-20T03:45:26.660Z,39.65
2023-03-20T03:48:07.033Z,41.35
2023-03-20T03:50:56.149Z,41.25
2023-03-20T03:53:32.182Z,41.33
2023-03-20T03:56:06.974Z,39.47
2023-03-20T03:58:49.375Z,40.92
2023-03-20T04:01:18.797Z,40.55
2023-03-20T04:03:56.192Z,41.53
2023-03-20T04:06:23.566Z,40.08
2023-03-20T04:08:50.384Z,42.45
2023-03-20T04:11:28.449Z,41.95
2023-03-20T04:13:56.141Z,40.92
2023-03-20T04:16:25.715Z,40.47
2023-03-20T04:18:53.470Z,41.10
2023-03-20T04:21:20.474Z,39.72
2023-03-20T04:23:47.351Z,41.70
2023-03-20T04:26:14.544Z,40.47
2023-03-20T04:28:41.408Z,42.05
2023-03-20T04:31:08.338Z,41.95
2023-03-20T04:33:35.987Z,40.72
2023-03-20T04:36:03.148Z,41.97
2023-03-20T04:38:30.368Z,42.35
2023-03-20T04:40:57.200Z,41.28
2023-03-20T04:43:24.128Z,43.13
2023-03-20T04:45:51.016Z,41.60
2023-03-20T04:48:17.913Z,43.38
2023-03-20T04:50:48.282Z,42.63
2023-03-20T04:53:16.283Z,43.17
2023-03-20T04:55:44.745Z,41.50
2023-03-20T04:58:12.423Z,40.70
2023-03-20T05:00:39.350Z,41.55
2023-03-20T05:03:06.355Z,41.70
2023-03-20T05:05:34.389Z,42.72
2023-03-20T05:08:01.356Z,42.25
2023-03-20T05:10:28.174Z,43.28
2023-03-20T05:12:55.051Z,42.75
2023-03-20T05:15:21.899Z,41.50
2023-03-20T05:17:51.608Z,41.92
2023-03-20T05:20:18.699Z,41.78
2023-03-20T05:22:48.965Z,42.55
2023-03-20T05:25:16.092Z,42.85
2023-03-20T05:27:46.161Z,40.40
2023-03-20T05:30:14.918Z,40.20
2023-03-20T05:32:43.678Z,40.45
2023-03-20T05:35:10.930Z,41.65
2023-03-20T05:37:39.084Z,42.47
2023-03-20T05:40:07.687Z,43.17
2023-03-20T05:42:34.753Z,40.25
2023-03-20T05:45:01.628Z,40.70
2023-03-20T05:47:28.496Z,41.55
2023-03-20T05:49:55.515Z,40.78
2023-03-20T05:52:23.124Z,39.78
2023-03-20T05:54:50.258Z,39.97
2023-03-20T05:57:17.633Z,40.28
2023-03-20T05:59:44.573Z,39.78
2023-03-20T06:02:12.414Z,40.13
2023-03-20T06:04:39.461Z,39.65
2023-03-20T06:07:06.474Z,40.40
2023-03-20T06:09:33.683Z,40.40
2023-03-20T06:12:00.920Z,39.60
2023-03-20T06:14:27.885Z,38.38
2023-03-20T06:16:55.225Z,38.22
2023-03-20T06:19:22.117Z,40.92
2023-03-20T06:21:50.572Z,39.65
2023-03-20T06:24:17.631Z,37.63
2023-03-20T06:26:44.711Z,37.28
2023-03-20T06:29:11.664Z,38.83
2023-03-20T06:31:38.580Z,38.03
2023-03-20T06:34:05.578Z,41.00
2023-03-20T06:36:32.440Z,40.65
2023-03-20T06:38:59.403Z,38.10
2023-03-20T06:41:34.313Z,38.75
2023-03-20T06:44:03.729Z,36.97
2023-03-20T06:46:30.763Z,37.35
2023-03-20T06:48:57.696Z,36.97
2023-03-20T06:51:24.593Z,35.90
2023-03-20T06:53:51.550Z,36.15
2023-03-20T06:56:18.615Z,34.47
2023-03-20T06:58:45.827Z,33.80
2023-03-20T07:01:17.152Z,34.53
2023-03-20T07:03:45.040Z,33.85
2023-03-20T07:06:12.753Z,33.60
2023-03-20T07:08:40.099Z,33.10
2023-03-20T07:11:07.639Z,33.72
2023-03-20T07:13:34.523Z,33.05
2023-03-20T07:16:04.889Z,33.58
2023-03-20T07:18:32.566Z,32.65
2023-03-20T07:21:06.301Z,32.00
2023-03-20T07:23:37.184Z,29.85
2023-03-20T07:26:05.490Z,31.17
2023-03-20T07:28:32.391Z,30.40
2023-03-20T07:30:59.340Z,30.17
2023-03-20T07:33:26.429Z,29.17
2023-03-20T07:35:56.480Z,28.83
2023-03-20T07:38:23.987Z,28.85
2023-03-20T07:40:54.175Z,28.05
2023-03-20T07:43:22.339Z,27.77
2023-03-20T07:45:49.222Z,27.85
2023-03-20T07:48:16.413Z,26.75
2023-03-20T07:50:43.812Z,26.45
2023-03-20T07:53:10.682Z,26.75
2023-03-20T07:55:39.708Z,26.48
2023-03-20T07:58:08.462Z,26.42
2023-03-20T08:00:35.362Z,28.02
2023-03-20T08:03:02.266Z,27.08
2023-03-20T08:05:29.675Z,27.55
2023-03-20T08:07:56.722Z,27.65
2023-03-20T08:10:23.670Z,27.00
2023-03-20T08:12:50.678Z,26.25
2023-03-20T08:15:17.592Z,26.35
2023-03-20T08:17:45.869Z,26.92
2023-03-20T08:20:15.338Z,26.70
2023-03-20T08:22:44.558Z,25.40
2023-03-20T08:25:11.772Z,25.90
2023-03-20T08:27:38.986Z,25.70
2023-03-20T08:30:07.024Z,24.42
2023-03-20T08:32:33.874Z,24.83
2023-03-20T08:35:00.861Z,25.63
2023-03-20T08:37:28.652Z,25.70
2023-03-20T08:39:55.461Z,24.67
2023-03-20T08:42:22.348Z,25.40
2023-03-20T08:44:49.245Z,24.40
2023-03-20T08:47:16.211Z,23.65
2023-03-20T08:49:43.692Z,23.15
2023-03-20T08:52:10.573Z,22.00
2023-03-20T08:54:37.689Z,21.55
2023-03-20T08:57:04.736Z,20.65
2023-03-20T08:59:31.691Z,20.27
2023-03-20T09:01:58.755Z,19.20
2023-03-20T09:04:25.700Z,16.83
2023-03-20T09:06:52.559Z,18.48
2023-03-20T09:09:21.520Z,18.27
2023-03-20T09:11:48.453Z,15.88
2023-03-20T09:14:15.626Z,15.50
2023-03-20T09:16:42.493Z,14.07
2023-03-20T09:19:09.378Z,13.35
2023-03-20T09:21:36.248Z,10.80
2023-03-20T09:24:03.321Z,11.90
2023-03-20T09:26:31.170Z,11.77
2023-03-20T09:28:58.112Z,10.65
2023-03-20T09:31:25.264Z,10.18
2023-03-20T09:33:52.192Z,9.38
2023-03-20T09:36:19.122Z,9.48
2023-03-20T09:38:46.019Z,10.02
2023-03-20T09:41:28.278Z,9.45
2023-03-20T09:44:40.084Z,9.23
2023-03-20T09:47:38.605Z,8.40
2023-03-20T09:50:38.237Z,7.78
2023-03-20T09:53:31.014Z,7.57
2023-03-20T09:55:59.007Z,8.70
2023-03-20T09:58:34.178Z,9.00
2023-03-20T10:01:05.510Z,7.72
2023-03-20T10:04:00.921Z,7.10
2023-03-20T10:06:28.518Z,7.32
2023-03-20T10:08:55.502Z,6.70
2023-03-20T10:12:04.010Z,7.53
2023-03-20T10:14:54.915Z,8.13
2023-03-20T10:17:45.813Z,7.93
2023-03-20T10:20:28.745Z,8.02
2023-03-20T10:23:16.771Z,8.07
2023-03-20T10:25:52.935Z,8.35
2023-03-20T10:29:02.960Z,8.60
2023-03-20T10:31:47.845Z,8.55
2023-03-20T10:35:03.845Z,8.27
2023-03-20T10:38:03.889Z,6.68
2023-03-20T10:40:41.583Z,6.78
2023-03-20T10:43:21.815Z,6.13
2023-03-20T10:46:02.809Z,5.68
2023-03-20T10:48:33.823Z,6.00
2023-03-20T10:51:03.454Z,6.60
2023-03-20T10:53:48.800Z,5.68
2023-03-20T10:56:32.372Z,5.80
2023-03-20T10:59:20.405Z,6.70
2023-03-20T11:01:47.422Z,6.43
2023-03-20T11:04:14.352Z,6.60
2023-03-20T11:07:18.788Z,6.68
2023-03-20T11:09:45.767Z,6.25
2023-03-20T11:12:35.569Z,6.65
2023-03-20T11:15:32.908Z,7.30
2023-03-20T11:18:07.709Z,7.50
2023-03-20T11:20:45.904Z,7.70
2023-03-20T11:23:19.516Z,7.70
2023-03-20T11:26:07.287Z,6.60
2023-03-20T11:28:46.571Z,5.50
2023-03-20T11:31:13.698Z,5.70
2023-03-20T11:33:50.843Z,5.40
2023-03-20T11:36:30.193Z,5.20
2023-03-20T11:39:23.580Z,4.90
2023-03-20T11:41:54.409Z,4.68
2023-03-20T11:44:36.831Z,4.82
2023-03-20T11:47:12.713Z,4.27
2023-03-20T11:49:50.385Z,4.50
2023-03-20T11:52:34.934Z,4.30
2023-03-20T11:55:26.656Z,4.28
2023-03-20T11:57:59.598Z,3.20
2023-03-20T12:00:51.520Z,4.03
2023-03-20T12:03:33.358Z,3.40
2023-03-20T12:06:01.262Z,3.50
2023-03-20T12:08:32.386Z,3.20
2023-03-20T12:11:29.105Z,3.50
2023-03-20T12:14:01.081Z,3.47
2023-03-20T12:16:30.592Z,3.72
2023-03-20T12:19:04.193Z,4.07
2023-03-20T12:22:04.415Z,4.53
2023-03-20T12:24:41.654Z,4.45
2023-03-20T12:27:40.122Z,3.97
2023-03-20T12:30:36.397Z,4.50
2023-03-20T12:33:18.052Z,4.20
2023-03-20T12:35:50.858Z,4.20
2023-03-20T12:38:28.542Z,4.00
2023-03-20T12:41:20.686Z,4.22
2023-03-20T12:44:11.572Z,3.67
2023-03-20T12:46:47.213Z,5.00
2023-03-20T12:49:48.798Z,4.80
2023-03-20T12:52:22.522Z,4.57
2023-03-20T12:55:15.062Z,5.00
2023-03-20T12:58:29.842Z,4.90
2023-03-20T13:01:20.772Z,4.88
2023-03-20T13:04:11.862Z,4.68
2023-03-20T13:06:55.152Z,4.88
2023-03-20T13:12:17.435Z,7.82
2023-03-20T13:15:21.930Z,7.68
2023-03-20T13:18:06.589Z,8.50
2023-03-20T13:20:46.101Z,9.43
2023-03-20T13:23:41.340Z,9.93
2023-03-20T13:26:31.606Z,11.95
2023-03-20T13:29:27.098Z,12.88
2023-03-20T13:32:13.797Z,12.93
2023-03-20T13:34:50.141Z,12.98
2023-03-20T13:37:36.075Z,12.85
2023-03-20T13:40:26.249Z,12.90
2023-03-20T13:43:40.465Z,12.18
2023-03-20T13:46:14.695Z,12.07
2023-03-20T13:48:43.896Z,11.48
2023-03-20T13:51:42.050Z,10.25
2023-03-20T13:54:32.675Z,10.93
2023-03-20T13:57:31.384Z,10.07
2023-03-20T14:00:28.773Z,10.45
2023-03-20T14:03:19.811Z,9.90
2023-03-20T14:05:47.497Z,11.10
2023-03-20T14:08:24.656Z,11.40
2023-03-20T14:11:35.236Z,12.20
2023-03-20T14:14:29.981Z,12.40
2023-03-20T14:17:27.183Z,12.02
2023-03-20T14:19:56.741Z,12.30
2023-03-20T14:22:34.319Z,11.45
2023-03-20T14:25:13.034Z,11.43
2023-03-20T14:28:11.643Z,11.43
2023-03-20T14:30:38.798Z,10.77
2023-03-20T14:33:30.321Z,10.90
2023-03-20T14:36:25.953Z,9.45
2023-03-20T14:39:21.908Z,8.88
2023-03-20T14:42:12.522Z,9.50
2023-03-20T14:45:00.970Z,9.60
2023-03-20T14:47:43.088Z,9.73
2023-03-20T14:50:31.218Z,9.73
2023-03-20T14:53:21.097Z,10.07
2023-03-20T14:55:56.918Z,9.93
2023-03-20T14:58:49.827Z,9.55
2023-03-20T15:01:21.679Z,9.13
2023-03-20T15:04:06.650Z,8.77
2023-03-20T15:06:47.828Z,8.50
2023-03-20T15:09:16.295Z,8.70
2023-03-20T15:11:43.898Z,8.43
2023-03-20T15:14:21.721Z,8.10
2023-03-20T15:16:48.823Z,7.20
2023-03-20T15:19:19.652Z,7.00
2023-03-20T15:21:48.602Z,7.05
2023-03-20T15:24:27.782Z,6.95
2023-03-20T15:27:00.222Z,6.53
2023-03-20T15:29:29.525Z,6.28
2023-03-20T15:32:12.795Z,6.32
2023-03-20T15:34:42.780Z,6.55
2023-03-20T15:37:23.393Z,6.53
2023-03-20T15:39:56.238Z,7.53
2023-03-20T15:42:25.811Z,7.30
2023-03-20T15:44:55.442Z,7.72
2023-03-20T15:47:25.341Z,7.35
2023-03-20T15:50:04.683Z,7.00
2023-03-20T15:52:41.994Z,7.43
2023-03-20T15:55:22.798Z,7.20
2023-03-20T15:57:52.723Z,7.53
2023-03-20T16:00:46.566Z,7.80
2023-03-20T16:03:21.621Z,8.50
2023-03-20T16:05:51.781Z,8.13
2023-03-20T16:08:32.392Z,8.02
2023-03-20T16:11:07.888Z,7.00
2023-03-20T16:13:42.104Z,7.75
2023-03-20T16:16:15.523Z,6.65
2023-03-20T16:18:47.982Z,5.85
2023-03-20T16:21:46.463Z,6.28
2023-03-20T16:24:25.635Z,5.65
2023-03-20T16:26:54.886Z,5.82
2023-03-20T16:29:25.209Z,5.55
2023-03-20T16:32:02.432Z,5.63
2023-03-20T16:34:37.007Z,5.68
2023-03-20T16:37:29.132Z,5.72
2023-03-20T16:40:14.578Z,5.95
2023-03-20T16:42:42.227Z,5.95
2023-03-20T16:45:33.246Z,6.07
2023-03-20T16:48:12.321Z,6.68
2023-03-20T16:50:48.441Z,6.55
2023-03-20T16:53:21.481Z,5.78
2023-03-20T16:58:28.370Z,5.88
2023-03-20T17:01:06.201Z,6.35
2023-03-20T17:03:48.150Z,6.20
2023-03-20T17:06:21.586Z,6.97
2023-03-20T17:09:00.963Z,6.47
2023-03-20T17:11:34.141Z,6.05
2023-03-20T17:14:02.557Z,6.65
2023-03-20T17:16:29.734Z,7.00
2023-03-20T17:19:10.608Z,8.38
2023-03-20T17:21:37.703Z,7.80
2023-03-20T17:24:05.512Z,6.35
2023-03-20T17:26:32.520Z,6.70
2023-03-20T17:28:59.497Z,6.22
2023-03-20T17:31:26.402Z,7.22
2023-03-20T17:33:53.655Z,6.65
2023-03-20T17:36:29.049Z,6.68
2023-03-20T17:38:57.411Z,6.78
2023-03-20T17:41:26.020Z,7.47
2023-03-20T17:43:53.889Z,7.60
2023-03-20T17:46:27.778Z,8.38
2023-03-20T17:49:13.252Z,8.27
2023-03-20T17:51:40.753Z,7.85
2023-03-20T17:54:07.810Z,7.15
2023-03-20T17:56:35.306Z,21.67
2023-03-20T17:59:06.696Z,8.13
2023-03-20T18:01:33.595Z,9.02
2023-03-20T18:04:00.741Z,9.10
2023-03-20T18:06:32.813Z,8.32
2023-03-20T18:09:01.847Z,6.72
2023-03-20T18:11:30.181Z,8.77
2023-03-20T18:13:57.181Z,7.90
2023-03-20T18:16:27.126Z,10.10
2023-03-20T18:18:55.146Z,9.75
2023-03-20T18:21:22.280Z,9.02
2023-03-20T18:23:49.332Z,8.52
2023-03-20T18:26:26.303Z,10.80
2023-03-20T18:28:55.614Z,7.88
2023-03-20T18:31:22.990Z,11.20
2023-03-20T18:33:52.769Z,8.27
2023-03-20T18:36:23.432Z,9.27
2023-03-20T18:38:51.896Z,7.82
2023-03-20T18:41:19.394Z,8.30
2023-03-20T18:43:46.755Z,7.20
2023-03-20T18:46:22.071Z,7.07
2023-03-20T18:48:53.774Z,7.32
2023-03-20T18:51:21.613Z,8.70
2023-03-20T18:53:48.467Z,8.50
2023-03-20T18:56:19.390Z,7.97
2023-03-20T18:58:47.952Z,7.65
2023-03-20T19:01:16.399Z,7.57
2023-03-20T19:03:45.947Z,8.48
2023-03-20T19:06:21.583Z,7.85
2023-03-20T19:08:50.136Z,7.30
2023-03-20T19:11:20.573Z,6.57
2023-03-20T19:13:52.370Z,5.85
2023-03-20T19:16:27.212Z,5.65
2023-03-20T19:18:58.589Z,6.18
2023-03-20T19:21:28.829Z,6.72
2023-03-20T19:24:04.880Z,6.45
2023-03-20T19:26:35.308Z,6.13
2023-03-20T19:29:08.323Z,6.30
2023-03-20T19:31:36.344Z,6.18
2023-03-20T19:34:03.409Z,5.72
2023-03-20T19:36:36.944Z,5.40
2023-03-20T19:39:07.637Z,5.93
2023-03-20T19:41:34.828Z,5.32
2023-03-20T19:44:01.807Z,5.93
2023-03-20T19:46:39.557Z,5.57
2023-03-20T19:49:19.200Z,5.40
2023-03-20T19:51:47.400Z,5.88
2023-03-20T19:54:14.298Z,5.63
2023-03-20T19:56:41.514Z,5.88
2023-03-20T19:59:08.576Z,6.32
2023-03-20T20:01:36.254Z,5.75
2023-03-20T20:04:04.199Z,5.65
2023-03-20T20:06:32.960Z,5.82
2023-03-20T20:09:01.483Z,6.50
2023-03-20T20:11:28.988Z,6.30
2023-03-20T20:14:14.479Z,6.57
2023-03-20T20:16:45.886Z,5.63
2023-03-20T20:19:12.979Z,5.22
2023-03-20T20:24:27.490Z,5.03
2023-03-20T20:27:14.781Z,5.22
2023-03-20T20:29:46.268Z,6.25
2023-03-20T20:32:13.132Z,7.13
2023-03-20T20:38:10.367Z,6.25
2023-03-20T20:40:19.086Z,5.20
2023-03-20T20:42:47.592Z,4.18
2023-03-20T20:45:15.418Z,5.00
2023-03-20T20:47:44.949Z,4.63
2023-03-20T20:50:20.376Z,4.30
2023-03-20T20:52:47.681Z,4.65
2023-03-20T20:55:23.074Z,6.68
2023-03-20T20:57:52.198Z,4.80
2023-03-20T21:00:27.468Z,4.35
2023-03-20T21:02:58.702Z,4.55
2023-03-20T21:05:26.957Z,4.47
2023-03-20T21:07:54.437Z,4.80
2023-03-20T21:10:22.059Z,5.00
2023-03-20T21:12:58.908Z,4.50
2023-03-20T21:15:27.758Z,4.50
2023-03-20T21:18:01.182Z,4.15
2023-03-20T21:20:30.354Z,3.88
2023-03-20T21:22:57.698Z,4.20
2023-03-20T21:25:38.679Z,4.75
2023-03-20T21:28:08.887Z,4.90
2023-03-20T21:30:36.557Z,5.15
2023-03-20T21:33:03.562Z,4.53
2023-03-20T21:35:30.548Z,29.75
2023-03-20T21:38:47.651Z,6.35
2023-03-20T21:40:45.298Z,11.02
2023-03-20T21:43:13.083Z,27.70
2023-03-20T21:49:24.627Z,37.03
2023-03-20T21:57:34.917Z,6.30
2023-03-20T22:00:31.671Z,4.40
2023-03-20T22:02:27.976Z,4.70
2023-03-20T22:14:37.220Z,5.50
2023-03-20T22:17:04.966Z,4.93
2023-03-20T22:22:55.294Z,4.93
2023-03-20T22:46:55.554Z,4.63
2023-03-20T22:49:22.558Z,4.82
2023-03-20T22:52:14.897Z,4.90
2023-03-20T22:54:38.419Z,4.35
2023-03-20T22:57:05.337Z,5.05
2023-03-20T22:59:32.421Z,5.70
2023-03-20T23:01:59.323Z,4.80
2023-03-20T23:04:27.450Z,4.90
2023-03-20T23:06:56.745Z,4.95
2023-03-20T23:09:23.773Z,5.00
2023-03-20T23:11:50.648Z,4.95
2023-03-20T23:14:21.650Z,4.90
2023-03-20T23:16:50.805Z,5.10
2023-03-20T23:19:17.970Z,4.70
2023-03-20T23:21:45.012Z,4.80
2023-03-20T23:24:11.901Z,4.90
2023-03-20T23:26:38.767Z,4.70
2023-03-20T23:29:05.801Z,4.82
2023-03-20T23:31:32.805Z,4.65
2023-03-20T23:33:59.819Z,4.90
2023-03-20T23:36:36.801Z,5.15
2023-03-20T23:39:11.065Z,5.10
2023-03-20T23:44:25.295Z,5.63
2023-03-20T23:46:52.192Z,5.03
2023-03-20T23:49:19.192Z,5.32
2023-03-20T23:51:46.631Z,5.20
2023-03-20T23:54:13.609Z,5.38
2023-03-20T23:56:40.770Z,5.60
2023-03-20T23:59:20.464Z,5.25
